createdAt,value
2022-09-12T00:01:46.701Z,100665.59
2022-09-12T00:05:10.119Z,100661.44
2022-09-12T00:08:32.818Z,100666.03
2022-09-12T00:11:57.370Z,100657.53
2022-09-12T00:15:20.941Z,100653.34
2022-09-12T00:18:45.409Z,100659.50
2022-09-12T00:22:08.199Z,100658.88
2022-09-12T00:25:31.812Z,100659.09
2022-09-12T00:28:56.470Z,100662.69
2022-09-12T00:32:19.234Z,100655.28
2022-09-12T00:35:46.722Z,100664.00
2022-09-12T00:39:09.961Z,100662.50
2022-09-12T00:42:33.811Z,100671.25
2022-09-12T00:45:59.703Z,100668.84
2022-09-12T00:49:28.843Z,100671.44
2022-09-12T00:52:54.613Z,100663.56
2022-09-12T00:56:19.284Z,100669.63
2022-09-12T00:59:46.479Z,100668.72
2022-09-12T01:03:20.819Z,100657.59
2022-09-12T01:06:44.973Z,100660.31
2022-09-12T01:10:09.815Z,100656.91
2022-09-12T01:13:33.969Z,100668.94
2022-09-12T01:16:57.023Z,100659.53
2022-09-12T01:20:43.542Z,100662.19
2022-09-12T01:24:35.987Z,100659.69
2022-09-12T01:28:22.821Z,100657.22
2022-09-12T01:31:55.417Z,100653.03
2022-09-12T01:35:28.497Z,100647.03
2022-09-12T01:38:56.473Z,100644.59
2022-09-12T01:42:26.496Z,100630.13
2022-09-12T01:45:57.983Z,100643.78
2022-09-12T01:49:26.961Z,100648.09
2022-09-12T01:52:54.219Z,100638.53
2022-09-12T01:56:23.429Z,100642.00
2022-09-12T01:59:48.828Z,100639.31
2022-09-12T02:03:16.001Z,100633.28
2022-09-12T02:06:47.834Z,100636.72
2022-09-12T02:10:15.236Z,100639.22
2022-09-12T02:13:41.982Z,100636.56
2022-09-12T02:17:11.290Z,100643.44
2022-09-12T02:20:47.941Z,100638.44
2022-09-12T02:24:16.663Z,100633.13
2022-09-12T02:27:42.840Z,100631.41
2022-09-12T02:31:14.776Z,100640.03
2022-09-12T02:34:51.250Z,100631.38
2022-09-12T02:38:20.254Z,100631.25
2022-09-12T02:41:44.545Z,100627.94
2022-09-12T02:45:08.840Z,100634.72
2022-09-12T02:48:36.402Z,100641.47
2022-09-12T02:51:59.774Z,100651.81
2022-09-12T02:55:25.088Z,100646.56
2022-09-12T02:58:50.703Z,100649.97
2022-09-12T03:02:28.653Z,100623.34
2022-09-12T03:05:59.770Z,100633.56
2022-09-12T03:09:32.847Z,100647.16
2022-09-12T03:13:05.360Z,100648.88
2022-09-12T03:16:37.571Z,100647.00
2022-09-12T03:20:05.303Z,100640.81
2022-09-12T03:23:35.014Z,100640.69
2022-09-12T03:27:02.503Z,100640.69
2022-09-12T03:30:25.821Z,100644.06
2022-09-12T03:33:50.759Z,100644.06
2022-09-12T03:37:13.617Z,100642.38
2022-09-12T03:40:36.778Z,100647.41
2022-09-12T03:44:00.043Z,100650.81
2022-09-12T03:47:23.010Z,100657.78
2022-09-12T03:50:46.996Z,100648.22
2022-09-12T03:54:14.251Z,100640.63
2022-09-12T03:57:37.208Z,100658.63
2022-09-12T04:01:00.539Z,100659.44
2022-09-12T04:04:24.055Z,100672.28
2022-09-12T04:07:49.063Z,100671.41
2022-09-12T04:11:15.524Z,100665.28
2022-09-12T04:14:39.190Z,100664.13
2022-09-12T04:18:05.753Z,100659.78
2022-09-12T04:21:29.520Z,100661.38
2022-09-12T04:24:53.868Z,100669.97
2022-09-12T04:28:16.340Z,100668.97
2022-09-12T04:31:38.868Z,100662.81
2022-09-12T04:35:02.062Z,100667.06
2022-09-12T04:38:25.027Z,100664.34
2022-09-12T04:41:49.414Z,100668.44
2022-09-12T04:45:13.501Z,100662.41
2022-09-12T04:48:36.659Z,100689.97
2022-09-12T04:51:59.626Z,100692.50
2022-09-12T04:55:23.609Z,100690.47
2022-09-12T04:58:48.584Z,100691.16
2022-09-12T05:02:11.413Z,100683.13
2022-09-12T05:05:37.405Z,100682.91
2022-09-12T05:09:02.418Z,100684.44
2022-09-12T05:12:25.059Z,100688.50
2022-09-12T05:16:00.517Z,100691.72
2022-09-12T05:19:23.779Z,100695.63
2022-09-12T05:22:47.054Z,100692.75
2022-09-12T05:26:10.881Z,100682.22
2022-09-12T05:29:34.713Z,100694.28
2022-09-12T05:32:59.240Z,100701.00
2022-09-12T05:36:27.077Z,100693.91
2022-09-12T05:39:50.505Z,100694.44
2022-09-12T05:43:14.026Z,100689.00
2022-09-12T05:46:39.650Z,100694.69
2022-09-12T05:50:11.225Z,100703.09
2022-09-12T05:53:34.067Z,100696.66
2022-09-12T05:56:57.673Z,100692.88
2022-09-12T06:00:21.210Z,100690.94
2022-09-12T06:03:46.847Z,100692.09
2022-09-12T06:07:11.337Z,100701.31
2022-09-12T06:10:35.895Z,100690.00
2022-09-12T06:14:00.542Z,100700.91
2022-09-12T06:17:23.594Z,100702.50
2022-09-12T06:20:46.558Z,100704.75
2022-09-12T06:24:11.352Z,100695.94
2022-09-12T06:27:34.115Z,100703.03
2022-09-12T06:31:06.528Z,100697.31
2022-09-12T06:34:29.553Z,100690.84
2022-09-12T06:37:52.405Z,100692.88
2022-09-12T06:41:17.525Z,100685.69
2022-09-12T06:44:40.385Z,100682.66
2022-09-12T06:48:03.905Z,100691.97
2022-09-12T06:51:27.122Z,100690.25
2022-09-12T06:54:50.278Z,100694.91
2022-09-12T06:58:15.289Z,100686.47
2022-09-12T07:01:38.639Z,100692.88
2022-09-12T07:05:01.722Z,100699.50
2022-09-12T07:08:25.092Z,100688.09
2022-09-12T07:11:48.867Z,100691.03
2022-09-12T07:15:14.911Z,100689.66
2022-09-12T07:18:39.296Z,100699.00
2022-09-12T07:22:02.458Z,100705.63
2022-09-12T07:25:25.918Z,100711.41
2022-09-12T07:28:53.915Z,100695.28
2022-09-12T07:32:18.301Z,100694.97
2022-09-12T07:35:41.067Z,100697.00
2022-09-12T07:39:04.324Z,100693.59
2022-09-12T07:42:27.285Z,100703.47
2022-09-12T07:45:50.492Z,100705.97
2022-09-12T07:49:15.557Z,100702.69
2022-09-12T07:52:38.517Z,100701.69
2022-09-12T07:56:03.330Z,100697.22
2022-09-12T07:59:48.813Z,100704.97
2022-09-12T08:03:12.074Z,100700.06
2022-09-12T08:06:37.702Z,100691.97
2022-09-12T08:10:00.974Z,100698.06
2022-09-12T08:13:25.049Z,100693.31
2022-09-12T08:16:48.635Z,100692.53
2022-09-12T08:20:12.710Z,100690.72
2022-09-12T08:23:36.797Z,100698.44
2022-09-12T08:26:59.453Z,100688.44
2022-09-12T08:30:22.409Z,100693.34
2022-09-12T08:33:45.141Z,100688.69
2022-09-12T08:37:07.817Z,100696.81
2022-09-12T08:40:32.519Z,100696.19
2022-09-12T08:44:30.090Z,100695.94
2022-09-12T08:47:53.873Z,100690.22
2022-09-12T08:51:20.928Z,100686.47
2022-09-12T08:54:46.761Z,100685.53
2022-09-12T08:58:17.498Z,100693.31
2022-09-12T09:01:45.984Z,100691.28
2022-09-12T09:05:20.724Z,100682.75
2022-09-12T09:08:58.941Z,100698.88
2022-09-12T09:12:28.149Z,100703.94
2022-09-12T09:16:02.613Z,100702.34
2022-09-12T09:19:30.155Z,100706.16
2022-09-12T09:22:57.302Z,100705.06
2022-09-12T09:26:27.119Z,100699.91
2022-09-12T09:29:55.719Z,100715.41
2022-09-12T09:33:23.697Z,100705.53
2022-09-12T09:36:52.703Z,100714.47
2022-09-12T09:40:23.985Z,100714.41
2022-09-12T09:43:47.330Z,100707.06
2022-09-12T09:47:14.580Z,100706.22
2022-09-12T09:50:39.392Z,100713.34
2022-09-12T09:54:12.902Z,100709.03
2022-09-12T09:57:47.956Z,100707.72
2022-09-12T10:01:17.763Z,100712.59
2022-09-12T10:04:43.889Z,100708.94
2022-09-12T10:08:09.728Z,100708.84
2022-09-12T10:11:34.960Z,100706.38
2022-09-12T10:15:01.269Z,100714.22
2022-09-12T10:18:36.848Z,100719.66
2022-09-12T10:22:01.319Z,100715.25
2022-09-12T10:25:32.909Z,100710.25
2022-09-12T10:28:58.088Z,100724.34
2022-09-12T10:32:31.606Z,100717.66
2022-09-12T10:35:56.091Z,100721.63
2022-09-12T10:39:21.828Z,100727.63
2022-09-12T10:42:49.905Z,100731.56
2022-09-12T10:46:33.854Z,100731.13
2022-09-12T10:50:22.597Z,100737.78
2022-09-12T10:53:48.236Z,100736.06
2022-09-12T10:57:38.646Z,100742.69
2022-09-12T11:01:10.535Z,100744.28
2022-09-12T11:04:49.753Z,100740.69
2022-09-12T11:08:21.011Z,100742.66
2022-09-12T11:11:55.750Z,100745.41
2022-09-12T11:15:34.632Z,100738.19
2022-09-12T11:19:15.457Z,100747.63
2022-09-12T11:23:02.975Z,100747.53
2022-09-12T11:26:36.701Z,100747.25
2022-09-12T11:30:01.540Z,100747.66
2022-09-12T11:33:42.984Z,100745.22
2022-09-12T11:37:28.696Z,100744.56
2022-09-12T11:40:56.372Z,100745.41
2022-09-12T11:44:24.851Z,100749.38
2022-09-12T11:47:53.759Z,100758.09
2022-09-12T11:51:21.840Z,100756.50
2022-09-12T11:54:53.483Z,100756.94
2022-09-12T11:58:19.116Z,100764.28
2022-09-12T12:01:48.563Z,100751.56
2022-09-12T12:05:22.854Z,100750.25
2022-09-12T12:08:47.724Z,100754.56
2022-09-12T12:12:21.168Z,100755.22
2022-09-12T12:15:49.099Z,100763.59
2022-09-12T12:19:33.307Z,100759.06
2022-09-12T12:22:57.186Z,100756.56
2022-09-12T12:26:57.940Z,100759.03
2022-09-12T12:31:03.760Z,100755.63
2022-09-12T12:34:34.232Z,100767.28
2022-09-12T12:37:59.851Z,100761.50
2022-09-12T12:41:55.175Z,100766.47
2022-09-12T12:45:50.045Z,100761.22
2022-09-12T12:49:21.133Z,100763.09
2022-09-12T12:52:52.177Z,100762.34
2022-09-12T12:56:36.146Z,100767.59
2022-09-12T13:00:07.229Z,100765.91
2022-09-12T13:03:32.808Z,100767.09
2022-09-12T13:07:07.134Z,100769.59
2022-09-12T13:10:33.570Z,100762.66
2022-09-12T13:14:02.127Z,100761.38
2022-09-12T13:17:38.013Z,100765.75
2022-09-12T13:21:12.150Z,100765.81
2022-09-12T13:24:45.160Z,100760.28
2022-09-12T13:28:19.675Z,100755.38
2022-09-12T13:31:47.227Z,100755.56
2022-09-12T13:35:20.151Z,100756.59
2022-09-12T13:38:55.176Z,100757.03
2022-09-12T13:42:41.001Z,100753.41
2022-09-12T13:46:05.490Z,100750.66
2022-09-12T13:49:36.055Z,100760.50
2022-09-12T13:53:07.157Z,100761.28
2022-09-12T13:56:32.171Z,100759.00
2022-09-12T13:59:58.015Z,100766.47
2022-09-12T14:03:50.960Z,100770.13
2022-09-12T14:07:17.917Z,100767.16
2022-09-12T14:10:44.048Z,100763.38
2022-09-12T14:14:18.984Z,100762.59
2022-09-12T14:17:52.700Z,100756.00
2022-09-12T14:21:32.148Z,100757.84
2022-09-12T14:24:56.434Z,100757.25
2022-09-12T14:28:23.647Z,100761.66
2022-09-12T14:31:47.169Z,100765.41
2022-09-12T14:35:21.700Z,100756.69
2022-09-12T14:38:49.163Z,100758.59
2022-09-12T14:42:17.155Z,100769.38
2022-09-12T14:45:40.203Z,100761.06
2022-09-12T14:49:11.039Z,100761.84
2022-09-12T14:52:36.030Z,100764.53
2022-09-12T14:56:09.568Z,100768.75
2022-09-12T14:59:38.671Z,100760.06
2022-09-12T15:03:27.027Z,100775.63
2022-09-12T15:06:49.785Z,100775.97
2022-09-12T15:10:22.677Z,100783.75
2022-09-12T15:13:45.582Z,100772.41
2022-09-12T15:17:08.402Z,100771.38
2022-09-12T15:20:35.237Z,100774.78
2022-09-12T15:24:04.245Z,100775.13
2022-09-12T15:27:27.921Z,100779.88
2022-09-12T15:30:52.976Z,100778.31
2022-09-12T15:34:15.882Z,100787.91
2022-09-12T15:37:41.044Z,100787.91
2022-09-12T15:41:03.757Z,100789.81
2022-09-12T15:44:26.512Z,100796.09
2022-09-12T15:47:49.471Z,100786.63
2022-09-12T15:51:15.551Z,100793.66
2022-09-12T15:54:40.792Z,100789.41
2022-09-12T15:58:07.000Z,100794.03
2022-09-12T16:01:31.082Z,100799.28
2022-09-12T16:04:55.229Z,100801.13
2022-09-12T16:08:18.179Z,100807.38
2022-09-12T16:11:43.501Z,100804.84
2022-09-12T16:15:07.177Z,100804.91
2022-09-12T16:18:30.752Z,100813.81
2022-09-12T16:21:53.465Z,100811.25
2022-09-12T16:25:17.797Z,100808.69
2022-09-12T16:28:42.088Z,100803.78
2022-09-12T16:32:06.055Z,100804.78
2022-09-12T16:35:29.235Z,100802.38
2022-09-12T16:38:54.245Z,100808.47
2022-09-12T16:42:18.224Z,100811.66
2022-09-12T16:45:43.853Z,100810.88
2022-09-12T16:49:07.726Z,100810.97
2022-09-12T16:52:31.924Z,100810.09
2022-09-12T16:55:54.670Z,100812.81
2022-09-12T16:59:17.743Z,100818.88
2022-09-12T17:02:42.047Z,100820.81
2022-09-12T17:06:08.260Z,100812.19
2022-09-12T17:09:31.017Z,100822.81
2022-09-12T17:12:53.873Z,100814.19
2022-09-12T17:16:16.736Z,100811.78
2022-09-12T17:19:41.067Z,100805.03
2022-09-12T17:23:07.666Z,100809.31
2022-09-12T17:26:32.470Z,100816.34
2022-09-12T17:29:55.595Z,100812.03
2022-09-12T17:33:19.215Z,100812.19
2022-09-12T17:36:44.936Z,100804.78
2022-09-12T17:40:08.254Z,100814.41
2022-09-12T17:43:31.982Z,100810.25
2022-09-12T17:46:55.250Z,100816.25
2022-09-12T17:50:31.339Z,100817.16
2022-09-12T17:54:03.702Z,100810.09
2022-09-12T17:57:26.869Z,100798.81
2022-09-12T18:01:06.409Z,100798.97
2022-09-12T18:04:30.212Z,100809.84
2022-09-12T18:07:54.798Z,100825.72
2022-09-12T18:11:19.702Z,100813.75
2022-09-12T18:14:43.081Z,100816.13
2022-09-12T18:18:07.052Z,100813.75
2022-09-12T18:21:31.138Z,100821.53
2022-09-12T18:24:54.502Z,100813.66
2022-09-12T18:28:19.725Z,100822.47
2022-09-12T18:31:42.475Z,100824.28
2022-09-12T18:35:05.119Z,100831.41
2022-09-12T18:38:27.884Z,100834.09
2022-09-12T18:41:50.951Z,100826.47
2022-09-12T18:45:15.235Z,100828.09
2022-09-12T18:48:39.016Z,100821.81
2022-09-12T18:52:01.785Z,100821.75
2022-09-12T18:55:25.037Z,100817.50
2022-09-12T18:58:52.709Z,100824.59
2022-09-12T19:02:18.837Z,100824.59
2022-09-12T19:05:41.695Z,100817.59
2022-09-12T19:09:07.750Z,100822.84
2022-09-12T19:12:33.559Z,100815.13
2022-09-12T19:15:56.560Z,100811.59
2022-09-12T19:19:21.941Z,100811.50
2022-09-12T19:22:44.896Z,100801.00
2022-09-12T19:26:09.906Z,100801.31
2022-09-12T19:29:32.558Z,100803.78
2022-09-12T19:32:55.309Z,100803.94
2022-09-12T19:36:43.708Z,100797.00
2022-09-12T19:40:05.353Z,100803.09
2022-09-12T19:43:28.982Z,100802.38
2022-09-12T19:46:51.728Z,100806.94
2022-09-12T19:50:14.791Z,100805.22
2022-09-12T19:53:40.004Z,100798.22
2022-09-12T19:57:05.562Z,100795.66
2022-09-12T20:00:28.886Z,100794.88
2022-09-12T20:03:54.312Z,100794.81
2022-09-12T20:07:17.370Z,100793.88
2022-09-12T20:10:41.566Z,100795.59
2022-09-12T20:14:04.720Z,100784.34
2022-09-12T20:17:28.396Z,100789.63
2022-09-12T20:20:54.223Z,100784.50
2022-09-12T20:24:23.951Z,100780.25
2022-09-12T20:27:48.446Z,100786.19
2022-09-12T20:31:24.561Z,100784.41
2022-09-12T20:34:48.911Z,100789.72
2022-09-12T20:38:12.069Z,100789.78
2022-09-12T20:41:37.178Z,100788.78
2022-09-12T20:45:01.772Z,100785.34
2022-09-12T20:48:24.424Z,100787.25
2022-09-12T20:51:48.819Z,100787.16
2022-09-12T20:55:12.715Z,100783.78
2022-09-12T20:58:39.363Z,100775.16
2022-09-12T21:02:07.742Z,100772.53
2022-09-12T21:05:31.005Z,100776.97
2022-09-12T21:08:54.061Z,100763.13
2022-09-12T21:12:17.134Z,100774.59
2022-09-12T21:15:40.446Z,100773.81
2022-09-12T21:19:04.785Z,100778.16
2022-09-12T21:22:27.955Z,100781.75
2022-09-12T21:25:52.705Z,100779.13
2022-09-12T21:29:15.637Z,100770.63
2022-09-12T21:32:39.492Z,100770.59
2022-09-12T21:36:05.832Z,100775.81
2022-09-12T21:39:28.798Z,100763.63
2022-09-12T21:42:52.168Z,100764.56
2022-09-12T21:46:15.394Z,100768.09
2022-09-12T21:49:38.292Z,100768.94
2022-09-12T21:53:02.787Z,100763.72
2022-09-12T21:56:25.741Z,100767.19
2022-09-12T21:59:48.609Z,100762.94
2022-09-12T22:03:12.084Z,100766.53
2022-09-12T22:06:35.243Z,100755.41
2022-09-12T22:09:59.326Z,100753.69
2022-09-12T22:13:22.076Z,100756.34
2022-09-12T22:16:45.040Z,100751.41
2022-09-12T22:20:08.718Z,100739.44
2022-09-12T22:23:48.362Z,100745.47
2022-09-12T22:27:16.140Z,100745.47
2022-09-12T22:30:39.102Z,100746.41
2022-09-12T22:34:02.262Z,100742.06
2022-09-12T22:37:25.739Z,100737.88
2022-09-12T22:40:48.488Z,100744.78
2022-09-12T22:44:13.190Z,100744.09
2022-09-12T22:47:36.652Z,100743.25
2022-09-12T22:50:59.429Z,100724.28
2022-09-12T22:54:22.887Z,100726.13
2022-09-12T22:57:45.761Z,100727.88
2022-09-12T23:01:10.812Z,100717.41
2022-09-12T23:04:34.742Z,100708.88
2022-09-12T23:07:57.395Z,100717.34
2022-09-12T23:11:22.708Z,100717.50
2022-09-12T23:14:46.796Z,100714.78
2022-09-12T23:18:11.393Z,100713.81
2022-09-12T23:21:34.563Z,100705.91
2022-09-12T23:24:57.218Z,100706.81
2022-09-12T23:28:20.377Z,100698.25
2022-09-12T23:31:42.955Z,100689.56
2022-09-12T23:35:08.544Z,100695.78
2022-09-12T23:38:32.736Z,100692.31
2022-09-12T23:41:56.211Z,100689.72
2022-09-12T23:45:18.959Z,100684.53
2022-09-12T23:48:42.609Z,100688.06
2022-09-12T23:52:07.241Z,100682.94
2022-09-12T23:55:30.407Z,100681.31
2022-09-12T23:58:53.262Z,100677.97
